sensor_id;sensor_type;location;lat;lon;timestamp;pressure;altitude;pressure_sealevel;temperature;humidity
56006;BME280;41888;44.696;10.522;2022-12-07T00:01:24;100395.41;;;5.10;100.00
56006;BME280;41888;44.696;10.522;2022-12-07T00:03:52;100391.31;;;5.07;100.00
56006;BME280;41888;44.696;10.522;2022-12-07T00:06:19;100383.16;;;5.25;100.00
56006;BME280;41888;44.696;10.522;2022-12-07T00:08:47;100391.13;;;5.17;100.00
56006;BME280;41888;44.696;10.522;2022-12-07T00:11:19;100384.72;;;5.03;100.00
56006;BME280;41888;44.696;10.522;2022-12-07T00:13:46;100383.00;;;5.19;100.00
56006;BME280;41888;44.696;10.522;2022-12-07T00:16:15;100390.31;;;5.08;100.00
56006;BME280;41888;44.696;10.522;2022-12-07T00:18:42;100376.94;;;5.18;100.00
56006;BME280;41888;44.696;10.522;2022-12-07T00:23:38;100368.84;;;5.20;100.00
56006;BME280;41888;44.696;10.522;2022-12-07T00:26:11;100369.72;;;5.04;100.00
56006;BME280;41888;44.696;10.522;2022-12-07T00:28:38;100361.50;;;5.07;100.00
56006;BME280;41888;44.696;10.522;2022-12-07T00:31:10;100351.31;;;4.96;100.00
56006;BME280;41888;44.696;10.522;2022-12-07T00:33:41;100348.16;;;5.00;100.00
56006;BME280;41888;44.696;10.522;2022-12-07T00:36:10;100363.00;;;4.93;100.00
56006;BME280;41888;44.696;10.522;2022-12-07T00:38:38;100347.16;;;5.01;100.00
56006;BME280;41888;44.696;10.522;2022-12-07T00:43:38;100347.69;;;4.89;100.00
56006;BME280;41888;44.696;10.522;2022-12-07T00:46:04;100332.56;;;4.83;100.00
56006;BME280;41888;44.696;10.522;2022-12-07T00:48:31;100340.81;;;4.80;100.00
56006;BME280;41888;44.696;10.522;2022-12-07T00:50:57;100342.78;;;4.78;100.00
56006;BME280;41888;44.696;10.522;2022-12-07T00:53:23;100336.84;;;4.84;100.00
56006;BME280;41888;44.696;10.522;2022-12-07T00:55:50;100333.88;;;4.79;100.00
56006;BME280;41888;44.696;10.522;2022-12-07T00:58:16;100329.09;;;4.82;100.00
56006;BME280;41888;44.696;10.522;2022-12-07T01:00:43;100322.53;;;4.78;100.00
56006;BME280;41888;44.696;10.522;2022-12-07T01:03:12;100334.09;;;4.69;100.00
56006;BME280;41888;44.696;10.522;2022-12-07T01:05:39;100332.41;;;4.76;100.00
56006;BME280;41888;44.696;10.522;2022-12-07T01:08:06;100332.53;;;4.91;100.00
56006;BME280;41888;44.696;10.522;2022-12-07T01:10:32;100330.22;;;4.88;100.00
56006;BME280;41888;44.696;10.522;2022-12-07T01:12:59;100335.69;;;4.78;100.00
56006;BME280;41888;44.696;10.522;2022-12-07T01:15:26;100328.25;;;4.90;100.00
56006;BME280;41888;44.696;10.522;2022-12-07T01:17:52;100321.44;;;5.03;100.00
56006;BME280;41888;44.696;10.522;2022-12-07T01:20:18;100328.34;;;5.04;100.00
56006;BME280;41888;44.696;10.522;2022-12-07T01:22:44;100326.25;;;5.00;100.00
56006;BME280;41888;44.696;10.522;2022-12-07T01:25:12;100340.25;;;5.00;100.00
56006;BME280;41888;44.696;10.522;2022-12-07T01:27:38;100326.91;;;4.94;100.00
56006;BME280;41888;44.696;10.522;2022-12-07T01:30:09;100328.88;;;4.92;100.00
56006;BME280;41888;44.696;10.522;2022-12-07T01:32:36;100330.84;;;4.98;100.00
56006;BME280;41888;44.696;10.522;2022-12-07T01:35:02;100325.06;;;5.02;100.00
56006;BME280;41888;44.696;10.522;2022-12-07T01:37:33;100336.94;;;4.98;100.00
56006;BME280;41888;44.696;10.522;2022-12-07T01:39:59;100328.34;;;5.04;100.00
56006;BME280;41888;44.696;10.522;2022-12-07T01:42:25;100336.34;;;5.19;100.00
56006;BME280;41888;44.696;10.522;2022-12-07T01:47:57;100338.66;;;5.22;100.00
56006;BME280;41888;44.696;10.522;2022-12-07T01:50:26;100339.66;;;5.21;100.00
56006;BME280;41888;44.696;10.522;2022-12-07T01:52:56;100334.84;;;5.25;100.00
56006;BME280;41888;44.696;10.522;2022-12-07T01:55:23;100333.56;;;5.21;100.00
56006;BME280;41888;44.696;10.522;2022-12-07T01:57:52;100336.34;;;5.27;100.00
56006;BME280;41888;44.696;10.522;2022-12-07T02:00:19;100332.34;;;5.31;100.00
56006;BME280;41888;44.696;10.522;2022-12-07T02:05:25;100330.41;;;5.25;100.00
56006;BME280;41888;44.696;10.522;2022-12-07T02:07:55;100327.72;;;5.33;100.00
56006;BME280;41888;44.696;10.522;2022-12-07T02:10:25;100316.47;;;5.39;100.00
56006;BME280;41888;44.696;10.522;2022-12-07T02:13:06;100320.75;;;5.40;100.00
56006;BME280;41888;44.696;10.522;2022-12-07T02:24:45;100316.53;;;5.31;100.00
56006;BME280;41888;44.696;10.522;2022-12-07T02:29:24;100312.59;;;5.27;100.00
56006;BME280;41888;44.696;10.522;2022-12-07T02:32:03;100294.75;;;5.29;100.00
56006;BME280;41888;44.696;10.522;2022-12-07T02:34:49;100307.09;;;5.37;100.00
56006;BME280;41888;44.696;10.522;2022-12-07T02:37:39;100309.34;;;5.48;100.00
56006;BME280;41888;44.696;10.522;2022-12-07T02:43:07;100298.00;;;5.39;100.00
56006;BME280;41888;44.696;10.522;2022-12-07T02:45:36;100302.28;;;5.40;100.00
56006;BME280;41888;44.696;10.522;2022-12-07T02:48:06;100294.44;;;5.32;100.00
56006;BME280;41888;44.696;10.522;2022-12-07T02:50:32;100299.66;;;5.40;100.00
56006;BME280;41888;44.696;10.522;2022-12-07T02:52:59;100300.00;;;5.37;100.00
56006;BME280;41888;44.696;10.522;2022-12-07T02:55:30;100305.44;;;5.36;100.00
56006;BME280;41888;44.696;10.522;2022-12-07T03:03:48;100292.84;;;5.23;100.00
56006;BME280;41888;44.696;10.522;2022-12-07T03:06:26;100289.00;;;5.34;100.00
56006;BME280;41888;44.696;10.522;2022-12-07T03:09:22;100287.50;;;5.31;100.00
56006;BME280;41888;44.696;10.522;2022-12-07T03:11:55;100283.75;;;5.26;100.00
56006;BME280;41888;44.696;10.522;2022-12-07T03:14:37;100293.69;;;5.16;100.00
56006;BME280;41888;44.696;10.522;2022-12-07T03:17:14;100296.16;;;5.17;100.00
56006;BME280;41888;44.696;10.522;2022-12-07T03:19:45;100285.03;;;5.07;100.00
56006;BME280;41888;44.696;10.522;2022-12-07T03:22:14;100285.31;;;5.12;100.00
56006;BME280;41888;44.696;10.522;2022-12-07T03:24:58;100286.00;;;5.06;100.00
56006;BME280;41888;44.696;10.522;2022-12-07T03:27:32;100283.38;;;5.06;100.00
56006;BME280;41888;44.696;10.522;2022-12-07T03:32:30;100282.75;;;4.96;100.00
56006;BME280;41888;44.696;10.522;2022-12-07T03:35:26;100279.91;;;5.05;100.00
56006;BME280;41888;44.696;10.522;2022-12-07T03:43:01;100285.03;;;5.07;100.00
56006;BME280;41888;44.696;10.522;2022-12-07T03:45:41;100272.47;;;5.09;100.00
56006;BME280;41888;44.696;10.522;2022-12-07T03:48:22;100274.88;;;5.19;100.00
56006;BME280;41888;44.696;10.522;2022-12-07T03:56:33;100264.25;;;5.04;100.00
56006;BME280;41888;44.696;10.522;2022-12-07T03:59:00;100268.59;;;4.97;100.00
56006;BME280;41888;44.696;10.522;2022-12-07T04:01:26;100267.09;;;4.94;100.00
56006;BME280;41888;44.696;10.522;2022-12-07T04:03:53;100262.81;;;4.93;100.00
56006;BME280;41888;44.696;10.522;2022-12-07T04:06:19;100260.69;;;4.97;100.00
56006;BME280;41888;44.696;10.522;2022-12-07T04:08:45;100270.56;;;4.95;100.00
56006;BME280;41888;44.696;10.522;2022-12-07T04:11:11;100277.34;;;4.89;100.00
56006;BME280;41888;44.696;10.522;2022-12-07T04:13:38;100275.69;;;4.88;100.00
56006;BME280;41888;44.696;10.522;2022-12-07T04:16:22;100259.41;;;4.85;100.00
56006;BME280;41888;44.696;10.522;2022-12-07T04:18:48;100261.38;;;4.83;100.00
56006;BME280;41888;44.696;10.522;2022-12-07T04:21:14;100253.78;;;4.88;100.00
56006;BME280;41888;44.696;10.522;2022-12-07T04:23:41;100246.88;;;4.87;100.00
56006;BME280;41888;44.696;10.522;2022-12-07T04:26:07;100252.44;;;4.92;100.00
56006;BME280;41888;44.696;10.522;2022-12-07T04:28:33;100249.19;;;4.82;100.00
56006;BME280;41888;44.696;10.522;2022-12-07T04:30:59;100248.03;;;4.84;100.00
56006;BME280;41888;44.696;10.522;2022-12-07T04:33:25;100250.38;;;4.79;100.00
56006;BME280;41888;44.696;10.522;2022-12-07T04:35:51;100253.97;;;4.86;100.00
56006;BME280;41888;44.696;10.522;2022-12-07T04:38:18;100255.13;;;4.84;100.00
56006;BME280;41888;44.696;10.522;2022-12-07T04:40:44;100246.56;;;4.82;100.00
56006;BME280;41888;44.696;10.522;2022-12-07T04:43:10;100248.72;;;4.78;100.00
56006;BME280;41888;44.696;10.522;2022-12-07T04:45:36;100261.75;;;4.72;100.00
56006;BME280;41888;44.696;10.522;2022-12-07T04:48:02;100255.19;;;4.67;100.00
56006;BME280;41888;44.696;10.522;2022-12-07T04:50:29;100256.53;;;4.63;100.00
56006;BME280;41888;44.696;10.522;2022-12-07T04:52:55;100262.06;;;4.77;100.00
56006;BME280;41888;44.696;10.522;2022-12-07T04:55:21;100259.44;;;4.77;100.00
56006;BME280;41888;44.696;10.522;2022-12-07T04:57:47;100269.34;;;4.66;100.00
56006;BME280;41888;44.696;10.522;2022-12-07T05:00:13;100255.00;;;4.77;100.00
56006;BME280;41888;44.696;10.522;2022-12-07T05:02:39;100257.41;;;4.87;100.00
56006;BME280;41888;44.696;10.522;2022-12-07T05:05:06;100257.47;;;4.71;100.00
56006;BME280;41888;44.696;10.522;2022-12-07T05:07:32;100261.59;;;4.73;100.00
56006;BME280;41888;44.696;10.522;2022-12-07T05:09:58;100259.09;;;4.80;100.00
56006;BME280;41888;44.696;10.522;2022-12-07T05:12:24;100260.09;;;4.71;100.00
56006;BME280;41888;44.696;10.522;2022-12-07T05:14:51;100257.66;;;4.69;100.00
56006;BME280;41888;44.696;10.522;2022-12-07T05:17:17;100260.16;;;4.62;100.00
56006;BME280;41888;44.696;10.522;2022-12-07T05:19:43;100260.63;;;4.66;100.00
56006;BME280;41888;44.696;10.522;2022-12-07T05:22:09;100264.91;;;4.67;100.00
56006;BME280;41888;44.696;10.522;2022-12-07T05:24:36;100266.50;;;4.76;100.00
56006;BME280;41888;44.696;10.522;2022-12-07T05:27:02;100257.81;;;4.67;100.00
56006;BME280;41888;44.696;10.522;2022-12-07T05:29:28;100257.66;;;4.69;100.00
56006;BME280;41888;44.696;10.522;2022-12-07T05:31:54;100259.00;;;4.65;100.00
56006;BME280;41888;44.696;10.522;2022-12-07T05:34:21;100247.66;;;4.64;100.00
56006;BME280;41888;44.696;10.522;2022-12-07T05:36:47;100246.16;;;4.62;100.00
56006;BME280;41888;44.696;10.522;2022-12-07T05:39:13;100251.59;;;4.60;100.00
56006;BME280;41888;44.696;10.522;2022-12-07T05:41:39;100253.03;;;4.71;100.00
56006;BME280;41888;44.696;10.522;2022-12-07T05:44:24;100253.25;;;4.61;100.00
56006;BME280;41888;44.696;10.522;2022-12-07T05:46:50;100251.25;;;4.63;100.00
56006;BME280;41888;44.696;10.522;2022-12-07T05:49:17;100257.88;;;4.51;100.00
56006;BME280;41888;44.696;10.522;2022-12-07T05:51:43;100265.47;;;4.46;100.00
56006;BME280;41888;44.696;10.522;2022-12-07T05:54:10;100260.34;;;4.53;100.00
56006;BME280;41888;44.696;10.522;2022-12-07T05:56:36;100271.41;;;4.48;100.00
56006;BME280;41888;44.696;10.522;2022-12-07T05:59:02;100259.06;;;4.49;100.00
56006;BME280;41888;44.696;10.522;2022-12-07T06:01:46;100265.81;;;4.43;100.00
56006;BME280;41888;44.696;10.522;2022-12-07T06:04:13;100269.44;;;4.34;100.00
56006;BME280;41888;44.696;10.522;2022-12-07T06:06:39;100273.38;;;4.54;100.00
56006;BME280;41888;44.696;10.522;2022-12-07T06:09:05;100266.34;;;4.39;100.00
56006;BME280;41888;44.696;10.522;2022-12-07T06:11:32;100270.44;;;4.41;100.00
56006;BME280;41888;44.696;10.522;2022-12-07T06:14:16;100267.97;;;4.40;100.00
56006;BME280;41888;44.696;10.522;2022-12-07T06:16:43;100270.75;;;4.54;100.00
56006;BME280;41888;44.696;10.522;2022-12-07T06:19:09;100281.09;;;4.56;100.00
56006;BME280;41888;44.696;10.522;2022-12-07T06:21:35;100284.84;;;4.61;100.00
56006;BME280;41888;44.696;10.522;2022-12-07T06:24:02;100269.06;;;4.61;100.00
56006;BME280;41888;44.696;10.522;2022-12-07T06:26:28;100275.31;;;4.60;100.00
56006;BME280;41888;44.696;10.522;2022-12-07T06:28:55;100269.41;;;4.58;100.00
56006;BME280;41888;44.696;10.522;2022-12-07T06:31:21;100269.88;;;4.62;100.00
56006;BME280;41888;44.696;10.522;2022-12-07T06:33:47;100268.56;;;4.58;100.00
56006;BME280;41888;44.696;10.522;2022-12-07T06:36:14;100260.19;;;4.54;100.00
56006;BME280;41888;44.696;10.522;2022-12-07T06:38:40;100275.66;;;4.57;100.00
56006;BME280;41888;44.696;10.522;2022-12-07T06:41:06;100275.13;;;4.62;100.00
56006;BME280;41888;44.696;10.522;2022-12-07T06:43:33;100276.16;;;4.45;100.00
56006;BME280;41888;44.696;10.522;2022-12-07T06:45:59;100264.81;;;4.44;100.00
56006;BME280;41888;44.696;10.522;2022-12-07T06:48:26;100269.91;;;4.46;100.00
56006;BME280;41888;44.696;10.522;2022-12-07T06:50:52;100277.66;;;4.47;100.00
56006;BME280;41888;44.696;10.522;2022-12-07T06:53:18;100281.59;;;4.59;100.00
56006;BME280;41888;44.696;10.522;2022-12-07T06:55:44;100282.88;;;4.63;100.00
56006;BME280;41888;44.696;10.522;2022-12-07T06:58:10;100280.09;;;4.65;100.00
56006;BME280;41888;44.696;10.522;2022-12-07T07:00:36;100286.03;;;4.59;100.00
56006;BME280;41888;44.696;10.522;2022-12-07T07:03:03;100277.88;;;4.77;100.00
56006;BME280;41888;44.696;10.522;2022-12-07T07:05:29;100283.81;;;4.71;100.00
56006;BME280;41888;44.696;10.522;2022-12-07T07:07:55;100293.38;;;4.72;100.00
56006;BME280;41888;44.696;10.522;2022-12-07T07:10:21;100293.06;;;4.75;100.00
56006;BME280;41888;44.696;10.522;2022-12-07T07:12:48;100297.34;;;4.76;100.00
56006;BME280;41888;44.696;10.522;2022-12-07T07:15:14;100300.63;;;4.78;100.00
56006;BME280;41888;44.696;10.522;2022-12-07T07:17:40;100292.03;;;4.84;100.00
56006;BME280;41888;44.696;10.522;2022-12-07T07:20:06;100307.81;;;4.92;100.00
56006;BME280;41888;44.696;10.522;2022-12-07T07:22:33;100304.84;;;4.95;100.00
56006;BME280;41888;44.696;10.522;2022-12-07T07:24:59;100299.72;;;4.93;100.00
56006;BME280;41888;44.696;10.522;2022-12-07T07:27:25;100304.47;;;4.98;100.00
56006;BME280;41888;44.696;10.522;2022-12-07T07:29:51;100298.88;;;5.01;100.00
56006;BME280;41888;44.696;10.522;2022-12-07T07:32:17;100304.41;;;5.14;100.00
56006;BME280;41888;44.696;10.522;2022-12-07T07:34:44;100311.38;;;5.07;100.00
56006;BME280;41888;44.696;10.522;2022-12-07T07:37:10;100306.44;;;5.04;100.00
56006;BME280;41888;44.696;10.522;2022-12-07T07:39:38;100306.75;;;5.09;100.00
56006;BME280;41888;44.696;10.522;2022-12-07T07:42:05;100299.88;;;5.31;100.00
56006;BME280;41888;44.696;10.522;2022-12-07T07:44:31;100309.06;;;5.35;100.00
56006;BME280;41888;44.696;10.522;2022-12-07T07:46:57;100303.78;;;5.43;100.00
56006;BME280;41888;44.696;10.522;2022-12-07T07:49:23;100308.81;;;5.52;100.00
56006;BME280;41888;44.696;10.522;2022-12-07T07:51:49;100313.97;;;5.69;100.00
56006;BME280;41888;44.696;10.522;2022-12-07T07:54:16;100326.34;;;5.68;100.00
56006;BME280;41888;44.696;10.522;2022-12-07T07:56:42;100316.75;;;5.75;100.00
56006;BME280;41888;44.696;10.522;2022-12-07T07:59:08;100327.47;;;5.74;100.00
56006;BME280;41888;44.696;10.522;2022-12-07T08:01:34;100326.66;;;5.73;100.00
56006;BME280;41888;44.696;10.522;2022-12-07T08:04:01;100329.41;;;5.80;100.00
56006;BME280;41888;44.696;10.522;2022-12-07T08:06:27;100334.31;;;5.83;100.00
56006;BME280;41888;44.696;10.522;2022-12-07T08:08:53;100327.41;;;5.82;100.00
56006;BME280;41888;44.696;10.522;2022-12-07T08:11:19;100331.19;;;5.87;100.00
56006;BME280;41888;44.696;10.522;2022-12-07T08:13:46;100332.88;;;5.80;100.00
56006;BME280;41888;44.696;10.522;2022-12-07T08:16:13;100334.09;;;5.70;100.00
56006;BME280;41888;44.696;10.522;2022-12-07T08:18:41;100338.69;;;5.76;100.00
56006;BME280;41888;44.696;10.522;2022-12-07T08:21:13;100342.94;;;5.77;100.00
56006;BME280;41888;44.696;10.522;2022-12-07T08:23:39;100340.59;;;5.82;100.00
56006;BME280;41888;44.696;10.522;2022-12-07T08:26:11;100349.34;;;5.90;100.00
56006;BME280;41888;44.696;10.522;2022-12-07T08:28:38;100348.69;;;5.88;100.00
56006;BME280;41888;44.696;10.522;2022-12-07T08:31:13;100350.44;;;5.96;100.00
56006;BME280;41888;44.696;10.522;2022-12-07T08:33:41;100340.88;;;5.95;100.00
56006;BME280;41888;44.696;10.522;2022-12-07T08:36:09;100349.63;;;6.18;100.00
56006;BME280;41888;44.696;10.522;2022-12-07T08:38:37;100344.94;;;6.43;100.00
56006;BME280;41888;44.696;10.522;2022-12-07T08:41:04;100347.31;;;6.53;100.00
56006;BME280;41888;44.696;10.522;2022-12-07T08:43:31;100342.75;;;6.61;100.00
56006;BME280;41888;44.696;10.522;2022-12-07T08:46:20;100347.41;;;6.74;100.00
56006;BME280;41888;44.696;10.522;2022-12-07T08:48:52;100342.22;;;6.66;100.00
56006;BME280;41888;44.696;10.522;2022-12-07T08:51:21;100351.97;;;6.80;100.00
56006;BME280;41888;44.696;10.522;2022-12-07T08:53:50;100359.84;;;7.03;100.00
56006;BME280;41888;44.696;10.522;2022-12-07T08:56:17;100354.88;;;7.29;100.00
56006;BME280;41888;44.696;10.522;2022-12-07T08:58:43;100363.72;;;7.21;100.00
56006;BME280;41888;44.696;10.522;2022-12-07T09:01:10;100353.59;;;7.10;100.00
56006;BME280;41888;44.696;10.522;2022-12-07T09:03:36;100360.44;;;7.05;100.00
56006;BME280;41888;44.696;10.522;2022-12-07T09:06:03;100360.47;;;6.90;100.00
56006;BME280;41888;44.696;10.522;2022-12-07T09:08:39;100355.44;;;6.81;100.00
56006;BME280;41888;44.696;10.522;2022-12-07T09:11:07;100360.53;;;6.82;100.00
56006;BME280;41888;44.696;10.522;2022-12-07T09:13:33;100359.47;;;6.91;100.00
56006;BME280;41888;44.696;10.522;2022-12-07T09:15:59;100366.41;;;6.92;100.00
56006;BME280;41888;44.696;10.522;2022-12-07T09:18:25;100363.00;;;6.98;100.00
56006;BME280;41888;44.696;10.522;2022-12-07T09:20:52;100367.41;;;6.91;100.00
56006;BME280;41888;44.696;10.522;2022-12-07T09:23:18;100365.63;;;6.98;100.00
56006;BME280;41888;44.696;10.522;2022-12-07T09:25:45;100360.63;;;7.18;100.00
56006;BME280;41888;44.696;10.522;2022-12-07T09:28:11;100358.44;;;7.57;100.00
56006;BME280;41888;44.696;10.522;2022-12-07T09:30:37;100348.34;;;8.03;100.00
56006;BME280;41888;44.696;10.522;2022-12-07T09:33:04;100365.25;;;8.79;100.00
56006;BME280;41888;44.696;10.522;2022-12-07T09:35:30;100363.47;;;8.31;100.00
56006;BME280;41888;44.696;10.522;2022-12-07T09:37:56;100367.00;;;8.17;100.00
56006;BME280;41888;44.696;10.522;2022-12-07T09:40:23;100361.34;;;8.26;100.00
56006;BME280;41888;44.696;10.522;2022-12-07T09:42:52;100368.44;;;8.68;100.00
56006;BME280;41888;44.696;10.522;2022-12-07T09:45:23;100367.13;;;8.58;100.00
56006;BME280;41888;44.696;10.522;2022-12-07T09:47:50;100365.88;;;8.81;100.00
56006;BME280;41888;44.696;10.522;2022-12-07T09:50:21;100363.38;;;9.08;100.00
56006;BME280;41888;44.696;10.522;2022-12-07T09:52:48;100352.44;;;9.24;100.00
56006;BME280;41888;44.696;10.522;2022-12-07T09:55:29;100347.31;;;8.81;100.00
56006;BME280;41888;44.696;10.522;2022-12-07T09:57:57;100349.31;;;8.24;100.00
56006;BME280;41888;44.696;10.522;2022-12-07T10:00:24;100348.78;;;7.86;100.00
56006;BME280;41888;44.696;10.522;2022-12-07T10:02:57;100347.09;;;7.63;100.00
56006;BME280;41888;44.696;10.522;2022-12-07T10:05:30;100352.44;;;7.49;100.00
56006;BME280;41888;44.696;10.522;2022-12-07T10:08:00;100348.38;;;7.32;100.00
56006;BME280;41888;44.696;10.522;2022-12-07T10:10:34;100341.47;;;7.52;100.00
56006;BME280;41888;44.696;10.522;2022-12-07T10:13:15;100329.72;;;7.76;100.00
56006;BME280;41888;44.696;10.522;2022-12-07T10:15:55;100333.81;;;7.99;100.00
56006;BME280;41888;44.696;10.522;2022-12-07T10:18:40;100337.59;;;8.12;100.00
56006;BME280;41888;44.696;10.522;2022-12-07T10:21:22;100338.91;;;8.01;100.00
56006;BME280;41888;44.696;10.522;2022-12-07T10:24:03;100344.53;;;7.91;100.00
56006;BME280;41888;44.696;10.522;2022-12-07T10:29:16;100334.31;;;8.10;100.00
56006;BME280;41888;44.696;10.522;2022-12-07T10:31:45;100331.31;;;7.91;100.00
56006;BME280;41888;44.696;10.522;2022-12-07T10:37:15;100327.88;;;8.19;100.00
56006;BME280;41888;44.696;10.522;2022-12-07T10:39:47;100321.34;;;8.21;100.00
56006;BME280;41888;44.696;10.522;2022-12-07T10:42:34;100323.03;;;8.50;100.00
56006;BME280;41888;44.696;10.522;2022-12-07T10:45:16;100328.41;;;8.63;100.00
56006;BME280;41888;44.696;10.522;2022-12-07T10:53:32;100318.03;;;9.03;100.00
56006;BME280;41888;44.696;10.522;2022-12-07T11:07:37;100291.72;;;9.82;100.00
56006;BME280;41888;44.696;10.522;2022-12-07T11:13:25;100282.50;;;10.37;100.00
56006;BME280;41888;44.696;10.522;2022-12-07T11:16:23;100283.91;;;10.66;100.00
56006;BME280;41888;44.696;10.522;2022-12-07T11:22:17;100284.88;;;12.84;100.00
56006;BME280;41888;44.696;10.522;2022-12-07T11:24:50;100263.28;;;13.52;95.63
56006;BME280;41888;44.696;10.522;2022-12-07T11:28:16;100265.47;;;15.18;86.31
56006;BME280;41888;44.696;10.522;2022-12-07T11:33:22;100261.03;;;14.84;82.53
56006;BME280;41888;44.696;10.522;2022-12-07T11:38:53;100252.38;;;15.33;75.85
56006;BME280;41888;44.696;10.522;2022-12-07T11:41:28;100248.78;;;15.56;77.28
56006;BME280;41888;44.696;10.522;2022-12-07T11:44:17;100252.34;;;16.07;73.55
56006;BME280;41888;44.696;10.522;2022-12-07T11:47:05;100241.72;;;15.67;76.14
56006;BME280;41888;44.696;10.522;2022-12-07T11:52:48;100245.56;;;15.87;72.25
56006;BME280;41888;44.696;10.522;2022-12-07T11:55:40;100244.63;;;15.48;74.06
56006;BME280;41888;44.696;10.522;2022-12-07T12:00:49;100246.47;;;15.19;78.32
56006;BME280;41888;44.696;10.522;2022-12-07T12:03:25;100247.22;;;14.28;80.92
56006;BME280;41888;44.696;10.522;2022-12-07T12:05:56;100249.00;;;14.46;80.13
56006;BME280;41888;44.696;10.522;2022-12-07T12:08:31;100241.97;;;14.68;79.67
56006;BME280;41888;44.696;10.522;2022-12-07T12:20:00;100237.00;;;15.29;78.21
56006;BME280;41888;44.696;10.522;2022-12-07T12:22:39;100229.59;;;15.19;78.21
56006;BME280;41888;44.696;10.522;2022-12-07T12:25:23;100222.59;;;13.50;84.53
56006;BME280;41888;44.696;10.522;2022-12-07T12:27:53;100225.03;;;12.74;90.30
56006;BME280;41888;44.696;10.522;2022-12-07T12:33:17;100227.41;;;12.02;99.12
56006;BME280;41888;44.696;10.522;2022-12-07T12:51:50;100219.78;;;12.31;99.28
56006;BME280;41888;44.696;10.522;2022-12-07T12:54:29;100224.59;;;11.97;100.00
56006;BME280;41888;44.696;10.522;2022-12-07T12:59:31;100217.22;;;10.47;100.00
56006;BME280;41888;44.696;10.522;2022-12-07T13:02:27;100207.91;;;9.72;100.00
56006;BME280;41888;44.696;10.522;2022-12-07T13:07:52;100198.56;;;8.89;100.00
56006;BME280;41888;44.696;10.522;2022-12-07T13:15:54;100208.84;;;7.68;100.00
56006;BME280;41888;44.696;10.522;2022-12-07T13:21:44;100211.19;;;7.35;100.00
56006;BME280;41888;44.696;10.522;2022-12-07T13:29:15;100193.78;;;7.05;100.00
56006;BME280;41888;44.696;10.522;2022-12-07T13:31:51;100193.06;;;7.11;100.00
56006;BME280;41888;44.696;10.522;2022-12-07T13:37:01;100191.97;;;7.05;100.00
56006;BME280;41888;44.696;10.522;2022-12-07T13:39:28;100193.63;;;7.06;100.00
56006;BME280;41888;44.696;10.522;2022-12-07T13:41:57;100192.16;;;7.25;100.00
56006;BME280;41888;44.696;10.522;2022-12-07T13:44:25;100203.63;;;7.32;100.00
56006;BME280;41888;44.696;10.522;2022-12-07T13:47:15;100205.41;;;7.25;100.00
56006;BME280;41888;44.696;10.522;2022-12-07T13:49:54;100190.06;;;6.99;100.00
56006;BME280;41888;44.696;10.522;2022-12-07T13:52:24;100190.13;;;6.85;100.00
56006;BME280;41888;44.696;10.522;2022-12-07T13:55:08;100191.41;;;6.74;100.00
56006;BME280;41888;44.696;10.522;2022-12-07T13:57:39;100192.34;;;6.52;100.00
56006;BME280;41888;44.696;10.522;2022-12-07T14:00:21;100195.13;;;6.44;100.00
56006;BME280;41888;44.696;10.522;2022-12-07T14:05:42;100190.09;;;6.19;100.00
56006;BME280;41888;44.696;10.522;2022-12-07T14:10:52;100185.91;;;5.96;100.00
56006;BME280;41888;44.696;10.522;2022-12-07T14:15:52;100192.97;;;5.80;100.00
56006;BME280;41888;44.696;10.522;2022-12-07T14:18:34;100185.63;;;5.68;100.00
56006;BME280;41888;44.696;10.522;2022-12-07T14:21:18;100190.34;;;5.58;100.00
56006;BME280;41888;44.696;10.522;2022-12-07T14:23:45;100187.13;;;5.70;100.00
56006;BME280;41888;44.696;10.522;2022-12-07T14:26:19;100188.09;;;5.55;100.00
56006;BME280;41888;44.696;10.522;2022-12-07T14:28:46;100189.81;;;5.62;100.00
56006;BME280;41888;44.696;10.522;2022-12-07T14:31:18;100192.78;;;5.44;100.00
56006;BME280;41888;44.696;10.522;2022-12-07T14:33:47;100188.09;;;5.32;100.00
56006;BME280;41888;44.696;10.522;2022-12-07T14:36:14;100191.88;;;5.29;100.00
56006;BME280;41888;44.696;10.522;2022-12-07T14:38:40;100193.41;;;5.24;100.00
56006;BME280;41888;44.696;10.522;2022-12-07T14:41:14;100192.66;;;5.15;100.00
56006;BME280;41888;44.696;10.522;2022-12-07T14:44:01;100193.19;;;5.10;100.00
56006;BME280;41888;44.696;10.522;2022-12-07T14:46:27;100193.31;;;5.17;100.00
56006;BME280;41888;44.696;10.522;2022-12-07T14:48:53;100193.06;;;5.04;100.00
56006;BME280;41888;44.696;10.522;2022-12-07T14:51:19;100202.16;;;5.01;100.00
56006;BME280;41888;44.696;10.522;2022-12-07T14:53:49;100204.00;;;4.93;100.00
56006;BME280;41888;44.696;10.522;2022-12-07T14:56:16;100193.81;;;4.90;100.00
56006;BME280;41888;44.696;10.522;2022-12-07T14:58:42;100206.63;;;4.93;100.00
56006;BME280;41888;44.696;10.522;2022-12-07T15:01:08;100202.06;;;4.87;100.00
56006;BME280;41888;44.696;10.522;2022-12-07T15:03:34;100197.34;;;5.05;100.00
56006;BME280;41888;44.696;10.522;2022-12-07T15:06:01;100198.41;;;4.96;100.00
56006;BME280;41888;44.696;10.522;2022-12-07T15:08:29;100200.66;;;4.99;100.00
56006;BME280;41888;44.696;10.522;2022-12-07T15:10:55;100200.75;;;4.83;100.00
56006;BME280;41888;44.696;10.522;2022-12-07T15:13:21;100200.16;;;4.73;100.00
56006;BME280;41888;44.696;10.522;2022-12-07T15:16:10;100198.81;;;4.77;100.00
56006;BME280;41888;44.696;10.522;2022-12-07T15:18:37;100205.44;;;4.73;100.00